sensor_id;sensor_type;location;lat;lon;timestamp;pressure;altitude;pressure_sealevel;temperature;humidity
5574;BME280;2563;52.242;7.956;2024-02-15T00:02:00;100023.19;;;11.77;100.00
5574;BME280;2563;52.242;7.956;2024-02-15T00:04:25;100022.28;;;11.78;100.00
5574;BME280;2563;52.242;7.956;2024-02-15T00:06:50;100023.19;;;11.77;100.00
5574;BME280;2563;52.242;7.956;2024-02-15T00:09:16;100031.72;;;11.79;100.00
5574;BME280;2563;52.242;7.956;2024-02-15T00:11:41;100016.25;;;11.79;100.00
5574;BME280;2563;52.242;7.956;2024-02-15T00:14:07;100018.88;;;11.77;100.00
5574;BME280;2563;52.242;7.956;2024-02-15T00:16:34;100025.78;;;11.77;100.00
5574;BME280;2563;52.242;7.956;2024-02-15T00:19:00;100028.34;;;11.77;100.00
5574;BME280;2563;52.242;7.956;2024-02-15T00:21:25;100018.03;;;11.77;100.00
5574;BME280;2563;52.242;7.956;2024-02-15T00:23:51;100018.88;;;11.77;100.00
5574;BME280;2563;52.242;7.956;2024-02-15T00:26:19;100014.56;;;11.78;100.00
5574;BME280;2563;52.242;7.956;2024-02-15T00:28:44;100016.38;;;11.76;100.00
5574;BME280;2563;52.242;7.956;2024-02-15T00:31:09;100023.19;;;11.77;100.00
5574;BME280;2563;52.242;7.956;2024-02-15T00:33:35;100024.88;;;11.78;100.00
5574;BME280;2563;52.242;7.956;2024-02-15T00:36:02;100019.78;;;11.76;100.00
5574;BME280;2563;52.242;7.956;2024-02-15T00:38:29;100024.88;;;11.78;100.00
5574;BME280;2563;52.242;7.956;2024-02-15T00:40:54;100021.41;;;11.79;100.00
5574;BME280;2563;52.242;7.956;2024-02-15T00:43:19;100024.78;;;11.81;100.00
5574;BME280;2563;52.242;7.956;2024-02-15T00:45:45;100019.66;;;11.79;100.00
5574;BME280;2563;52.242;7.956;2024-02-15T00:48:10;100021.41;;;11.79;100.00
5574;BME280;2563;52.242;7.956;2024-02-15T00:50:36;100016.38;;;11.76;100.00
5574;BME280;2563;52.242;7.956;2024-02-15T00:53:01;100019.84;;;11.75;100.00
5574;BME280;2563;52.242;7.956;2024-02-15T00:55:26;100023.31;;;11.74;100.00
5574;BME280;2563;52.242;7.956;2024-02-15T00:57:52;100016.38;;;11.76;100.00
5574;BME280;2563;52.242;7.956;2024-02-15T01:00:17;100021.53;;;11.76;100.00
5574;BME280;2563;52.242;7.956;2024-02-15T01:02:43;100024.16;;;11.74;100.00
5574;BME280;2563;52.242;7.956;2024-02-15T01:05:08;100025.13;;;11.71;100.00
5574;BME280;2563;52.242;7.956;2024-02-15T01:07:35;100002.78;;;11.70;100.00
5574;BME280;2563;52.242;7.956;2024-02-15T01:10:00;100013.09;;;11.70;100.00
5574;BME280;2563;52.242;7.956;2024-02-15T01:12:25;100015.69;;;11.70;100.00
5574;BME280;2563;52.242;7.956;2024-02-15T01:14:51;100024.22;;;11.73;100.00
5574;BME280;2563;52.242;7.956;2024-02-15T01:17:16;100026.91;;;11.69;100.00
5574;BME280;2563;52.242;7.956;2024-02-15T01:19:42;100044.03;;;11.70;100.00
5574;BME280;2563;52.242;7.956;2024-02-15T01:22:07;100040.75;;;11.67;100.00
5574;BME280;2563;52.242;7.956;2024-02-15T01:24:33;100039.75;;;11.71;100.00
5574;BME280;2563;52.242;7.956;2024-02-15T01:26:58;100040.59;;;11.71;100.00
5574;BME280;2563;52.242;7.956;2024-02-15T01:29:23;100041.47;;;11.70;100.00
5574;BME280;2563;52.242;7.956;2024-02-15T01:31:51;100044.28;;;11.64;100.00
5574;BME280;2563;52.242;7.956;2024-02-15T01:34:16;100044.16;;;11.67;100.00
5574;BME280;2563;52.242;7.956;2024-02-15T01:36:42;100034.69;;;11.68;100.00
5574;BME280;2563;52.242;7.956;2024-02-15T01:39:07;100037.34;;;11.66;100.00
5574;BME280;2563;52.242;7.956;2024-02-15T01:41:32;100034.81;;;11.65;100.00
5574;BME280;2563;52.242;7.956;2024-02-15T01:43:58;100033.19;;;11.62;100.00
5574;BME280;2563;52.242;7.956;2024-02-15T01:46:24;100047.88;;;11.60;100.00
5574;BME280;2563;52.242;7.956;2024-02-15T01:48:50;100041.84;;;11.61;100.00
5574;BME280;2563;52.242;7.956;2024-02-15T01:51:16;100049.44;;;11.64;100.00
5574;BME280;2563;52.242;7.956;2024-02-15T01:53:43;100047.88;;;11.60;100.00
5574;BME280;2563;52.242;7.956;2024-02-15T01:56:10;100047.75;;;11.63;100.00
5574;BME280;2563;52.242;7.956;2024-02-15T01:58:39;100050.16;;;11.68;100.00
5574;BME280;2563;52.242;7.956;2024-02-15T02:01:05;100053.66;;;11.67;100.00
5574;BME280;2563;52.242;7.956;2024-02-15T02:03:31;100058.81;;;11.67;100.00
5574;BME280;2563;52.242;7.956;2024-02-15T02:05:57;100052.34;;;11.55;100.00
5574;BME280;2563;52.242;7.956;2024-02-15T02:08:23;100050.28;;;11.65;100.00
5574;BME280;2563;52.242;7.956;2024-02-15T02:10:50;100041.72;;;11.64;100.00
5574;BME280;2563;52.242;7.956;2024-02-15T02:13:16;100035.59;;;11.67;100.00
5574;BME280;2563;52.242;7.956;2024-02-15T02:15:42;100036.47;;;11.66;100.00
5574;BME280;2563;52.242;7.956;2024-02-15T02:18:07;100023.66;;;11.64;100.00
5574;BME280;2563;52.242;7.956;2024-02-15T02:20:35;100004.88;;;11.61;100.00
5574;BME280;2563;52.242;7.956;2024-02-15T02:23:14;99994.66;;;11.59;100.00
5574;BME280;2563;52.242;7.956;2024-02-15T02:25:40;100006.75;;;11.57;100.00
5574;BME280;2563;52.242;7.956;2024-02-15T02:28:09;100034.34;;;11.54;100.00
5574;BME280;2563;52.242;7.956;2024-02-15T02:30:35;100046.41;;;11.53;100.00
5574;BME280;2563;52.242;7.956;2024-02-15T02:33:01;100056.72;;;11.53;100.00
5574;BME280;2563;52.242;7.956;2024-02-15T02:35:27;100081.66;;;11.53;100.00
5574;BME280;2563;52.242;7.956;2024-02-15T02:37:56;100087.66;;;11.53;100.00
5574;BME280;2563;52.242;7.956;2024-02-15T02:40:21;100101.44;;;11.52;100.00
5574;BME280;2563;52.242;7.956;2024-02-15T02:42:53;100113.38;;;11.55;100.00
5574;BME280;2563;52.242;7.956;2024-02-15T02:45:21;100130.59;;;11.54;100.00
5574;BME280;2563;52.242;7.956;2024-02-15T02:47:48;100142.69;;;11.52;100.00
5574;BME280;2563;52.242;7.956;2024-02-15T02:50:13;100166.66;;;11.54;100.00
5574;BME280;2563;52.242;7.956;2024-02-15T02:52:39;100186.44;;;11.54;100.00
5574;BME280;2563;52.242;7.956;2024-02-15T02:55:05;100202.00;;;11.50;100.00
5574;BME280;2563;52.242;7.956;2024-02-15T02:57:35;100201.09;;;11.52;100.00
5574;BME280;2563;52.242;7.956;2024-02-15T03:00:06;100199.38;;;11.52;100.00
5574;BME280;2563;52.242;7.956;2024-02-15T03:02:38;100206.00;;;11.59;100.00
5574;BME280;2563;52.242;7.956;2024-02-15T03:05:05;100208.47;;;11.62;100.00
5574;BME280;2563;52.242;7.956;2024-02-15T03:07:37;100234.16;;;11.65;100.00
5574;BME280;2563;52.242;7.956;2024-02-15T03:10:04;100249.53;;;11.68;100.00
5574;BME280;2563;52.242;7.956;2024-02-15T03:12:30;100233.13;;;11.71;100.00
5574;BME280;2563;52.242;7.956;2024-02-15T03:14:55;100239.16;;;11.70;100.00
5574;BME280;2563;52.242;7.956;2024-02-15T03:17:22;100226.25;;;11.70;100.00
5574;BME280;2563;52.242;7.956;2024-02-15T03:19:48;100216.03;;;11.68;100.00
5574;BME280;2563;52.242;7.956;2024-02-15T03:22:14;100198.72;;;11.70;100.00
5574;BME280;2563;52.242;7.956;2024-02-15T03:24:40;100166.00;;;11.73;100.00
5574;BME280;2563;52.242;7.956;2024-02-15T03:27:05;100163.50;;;11.71;100.00
5574;BME280;2563;52.242;7.956;2024-02-15T03:29:31;100174.66;;;11.71;100.00
5574;BME280;2563;52.242;7.956;2024-02-15T03:31:56;100183.25;;;11.70;100.00
5574;BME280;2563;52.242;7.956;2024-02-15T03:34:21;100174.69;;;11.70;100.00
5574;BME280;2563;52.242;7.956;2024-02-15T03:36:48;100177.28;;;11.70;100.00
5574;BME280;2563;52.242;7.956;2024-02-15T03:39:18;100173.06;;;11.67;100.00
5574;BME280;2563;52.242;7.956;2024-02-15T03:41:44;100165.28;;;11.69;100.00
5574;BME280;2563;52.242;7.956;2024-02-15T03:44:11;100168.66;;;11.71;100.00
5574;BME280;2563;52.242;7.956;2024-02-15T03:46:37;100161.09;;;11.66;100.00
5574;BME280;2563;52.242;7.956;2024-02-15T03:49:02;100147.16;;;11.70;100.00
5574;BME280;2563;52.242;7.956;2024-02-15T03:51:27;100150.66;;;11.69;100.00
5574;BME280;2563;52.242;7.956;2024-02-15T03:53:53;100149.00;;;11.68;100.00
5574;BME280;2563;52.242;7.956;2024-02-15T03:56:18;100153.22;;;11.69;100.00
5574;BME280;2563;52.242;7.956;2024-02-15T03:58:46;100154.16;;;11.68;100.00
5574;BME280;2563;52.242;7.956;2024-02-15T04:01:11;100149.00;;;11.68;100.00
5574;BME280;2563;52.242;7.956;2024-02-15T04:03:38;100149.00;;;11.68;100.00
5574;BME280;2563;52.242;7.956;2024-02-15T04:06:05;100155.94;;;11.66;100.00
5574;BME280;2563;52.242;7.956;2024-02-15T04:08:30;100144.72;;;11.67;100.00
5574;BME280;2563;52.242;7.956;2024-02-15T04:10:55;100145.50;;;11.69;100.00
5574;BME280;2563;52.242;7.956;2024-02-15T04:13:22;100164.34;;;11.71;100.00
5574;BME280;2563;52.242;7.956;2024-02-15T04:15:48;100154.81;;;11.74;100.00
5574;BME280;2563;52.242;7.956;2024-02-15T04:18:15;100162.59;;;11.72;100.00
5574;BME280;2563;52.242;7.956;2024-02-15T04:20:43;100129.91;;;11.73;100.00
5574;BME280;2563;52.242;7.956;2024-02-15T04:23:11;100139.34;;;11.74;100.00
5574;BME280;2563;52.242;7.956;2024-02-15T04:25:36;100150.34;;;11.79;100.00
5574;BME280;2563;52.242;7.956;2024-02-15T04:28:02;100156.22;;;11.82;100.00
5574;BME280;2563;52.242;7.956;2024-02-15T04:30:32;100144.19;;;11.83;100.00
5574;BME280;2563;52.242;7.956;2024-02-15T04:32:57;100132.13;;;11.83;100.00
5574;BME280;2563;52.242;7.956;2024-02-15T04:35:23;100122.63;;;11.84;100.00
5574;BME280;2563;52.242;7.956;2024-02-15T04:37:49;100121.69;;;11.86;100.00
5574;BME280;2563;52.242;7.956;2024-02-15T04:40:16;100110.53;;;11.86;100.00
5574;BME280;2563;52.242;7.956;2024-02-15T04:42:43;100095.19;;;11.83;100.00
5574;BME280;2563;52.242;7.956;2024-02-15T04:45:10;100079.59;;;11.86;100.00
5574;BME280;2563;52.242;7.956;2024-02-15T04:47:38;100059.00;;;11.84;100.00
5574;BME280;2563;52.242;7.956;2024-02-15T04:50:06;99858.84;;;11.82;100.00
5574;BME280;2563;52.242;7.956;2024-02-15T04:52:32;99877.81;;;11.81;100.00
5574;BME280;2563;52.242;7.956;2024-02-15T04:54:57;99762.75;;;11.78;100.00
5574;BME280;2563;52.242;7.956;2024-02-15T04:57:25;99740.44;;;11.77;100.00
5574;BME280;2563;52.242;7.956;2024-02-15T04:59:56;99761.88;;;11.78;100.00
5574;BME280;2563;52.242;7.956;2024-02-15T05:02:21;99772.88;;;11.83;100.00
5574;BME280;2563;52.242;7.956;2024-02-15T05:04:52;99793.56;;;11.81;100.00
5574;BME280;2563;52.242;7.956;2024-02-15T05:07:21;99830.44;;;11.83;100.00
5574;BME280;2563;52.242;7.956;2024-02-15T05:09:50;99847.56;;;11.84;100.00
5574;BME280;2563;52.242;7.956;2024-02-15T05:12:23;99819.09;;;11.87;100.00
5574;BME280;2563;52.242;7.956;2024-02-15T05:14:52;99836.22;;;11.90;100.00
5574;BME280;2563;52.242;7.956;2024-02-15T05:17:18;99785.53;;;11.89;100.00
5574;BME280;2563;52.242;7.956;2024-02-15T05:19:44;99776.19;;;11.85;100.00
5574;BME280;2563;52.242;7.956;2024-02-15T05:22:10;99778.91;;;11.82;100.00
5574;BME280;2563;52.242;7.956;2024-02-15T05:24:36;99736.69;;;11.84;100.00
5574;BME280;2563;52.242;7.956;2024-02-15T05:27:04;99758.16;;;11.85;100.00
5574;BME280;2563;52.242;7.956;2024-02-15T05:29:29;99776.38;;;11.80;100.00
5574;BME280;2563;52.242;7.956;2024-02-15T05:31:59;99771.69;;;11.69;100.00
5574;BME280;2563;52.242;7.956;2024-02-15T05:34:24;99775.28;;;11.65;100.00
5574;BME280;2563;52.242;7.956;2024-02-15T05:36:50;99789.09;;;11.64;100.00
5574;BME280;2563;52.242;7.956;2024-02-15T05:39:16;99775.44;;;11.62;100.00
5574;BME280;2563;52.242;7.956;2024-02-15T05:41:45;99746.28;;;11.60;100.00
5574;BME280;2563;52.242;7.956;2024-02-15T05:44:11;99739.47;;;11.59;100.00
5574;BME280;2563;52.242;7.956;2024-02-15T05:46:36;99729.22;;;11.58;100.00
5574;BME280;2563;52.242;7.956;2024-02-15T05:49:05;99684.56;;;11.57;100.00
5574;BME280;2563;52.242;7.956;2024-02-15T05:51:31;99527.38;;;11.57;100.00
5574;BME280;2563;52.242;7.956;2024-02-15T05:53:57;99533.34;;;11.58;100.00
5574;BME280;2563;52.242;7.956;2024-02-15T05:56:25;99597.72;;;11.59;100.00
5574;BME280;2563;52.242;7.956;2024-02-15T05:58:52;99638.97;;;11.59;100.00
5574;BME280;2563;52.242;7.956;2024-02-15T06:01:17;99673.28;;;11.60;100.00
5574;BME280;2563;52.242;7.956;2024-02-15T06:03:42;99677.19;;;11.49;100.00
5574;BME280;2563;52.242;7.956;2024-02-15T06:06:09;99715.16;;;11.44;100.00
5574;BME280;2563;52.242;7.956;2024-02-15T06:08:37;99762.50;;;11.42;100.00
5574;BME280;2563;52.242;7.956;2024-02-15T06:11:03;99819.25;;;11.40;100.00
5574;BME280;2563;52.242;7.956;2024-02-15T06:13:31;99874.16;;;11.42;100.00
5574;BME280;2563;52.242;7.956;2024-02-15T06:15:57;99904.34;;;11.39;100.00
5574;BME280;2563;52.242;7.956;2024-02-15T06:18:27;99944.69;;;11.40;100.00
5574;BME280;2563;52.242;7.956;2024-02-15T06:20:58;100029.81;;;11.37;100.00
5574;BME280;2563;52.242;7.956;2024-02-15T06:23:24;100089.97;;;11.36;100.00
5574;BME280;2563;52.242;7.956;2024-02-15T06:25:51;100145.75;;;11.37;100.00
5574;BME280;2563;52.242;7.956;2024-02-15T06:28:20;100175.88;;;11.35;100.00
5574;BME280;2563;52.242;7.956;2024-02-15T06:31:05;100197.31;;;11.37;100.00
5574;BME280;2563;52.242;7.956;2024-02-15T06:33:49;100234.28;;;11.36;100.00
5574;BME280;2563;52.242;7.956;2024-02-15T06:36:33;100272.03;;;11.37;100.00
5574;BME280;2563;52.242;7.956;2024-02-15T06:39:17;100273.63;;;11.41;100.00
5574;BME280;2563;52.242;7.956;2024-02-15T06:42:01;100271.09;;;11.39;100.00
5574;BME280;2563;52.242;7.956;2024-02-15T06:44:27;100250.56;;;11.36;100.00
5574;BME280;2563;52.242;7.956;2024-02-15T06:46:52;100237.00;;;11.31;100.00
5574;BME280;2563;52.242;7.956;2024-02-15T06:49:18;100226.47;;;11.37;100.00
5574;BME280;2563;52.242;7.956;2024-02-15T06:51:43;100224.81;;;11.36;100.00
5574;BME280;2563;52.242;7.956;2024-02-15T06:54:09;100238.53;;;11.37;100.00
5574;BME280;2563;52.242;7.956;2024-02-15T06:56:38;100248.84;;;11.37;100.00
5574;BME280;2563;52.242;7.956;2024-02-15T06:59:05;100212.81;;;11.35;100.00
5574;BME280;2563;52.242;7.956;2024-02-15T07:01:30;100232.28;;;11.44;100.00
5574;BME280;2563;52.242;7.956;2024-02-15T07:03:55;100264.81;;;11.48;100.00
5574;BME280;2563;52.242;7.956;2024-02-15T07:06:21;100280.09;;;11.54;100.00
5574;BME280;2563;52.242;7.956;2024-02-15T07:08:47;100298.16;;;11.53;100.00
5574;BME280;2563;52.242;7.956;2024-02-15T07:11:15;100290.22;;;11.59;100.00
5574;BME280;2563;52.242;7.956;2024-02-15T07:13:41;100295.31;;;11.60;100.00
5574;BME280;2563;52.242;7.956;2024-02-15T07:16:07;100289.19;;;11.64;100.00
5574;BME280;2563;52.242;7.956;2024-02-15T07:18:33;100284.75;;;11.68;100.00
5574;BME280;2563;52.242;7.956;2024-02-15T07:20:58;100276.19;;;11.67;100.00
5574;BME280;2563;52.242;7.956;2024-02-15T07:23:29;100263.09;;;11.74;100.00
5574;BME280;2563;52.242;7.956;2024-02-15T07:25:54;100253.66;;;11.73;100.00
5574;BME280;2563;52.242;7.956;2024-02-15T07:28:20;100235.53;;;11.76;100.00
5574;BME280;2563;52.242;7.956;2024-02-15T07:30:46;100210.50;;;11.78;100.00
5574;BME280;2563;52.242;7.956;2024-02-15T07:33:14;100206.06;;;11.83;100.00
5574;BME280;2563;52.242;7.956;2024-02-15T07:35:43;100172.44;;;11.86;100.00
5574;BME280;2563;52.242;7.956;2024-02-15T07:38:08;100137.16;;;11.88;100.00
5574;BME280;2563;52.242;7.956;2024-02-15T07:40:35;100112.16;;;11.90;100.00
5574;BME280;2563;52.242;7.956;2024-02-15T07:43:00;100070.88;;;11.90;100.00
5574;BME280;2563;52.242;7.956;2024-02-15T07:45:28;100030.22;;;11.97;100.00
5574;BME280;2563;52.242;7.956;2024-02-15T07:47:54;100000.03;;;11.99;100.00
5574;BME280;2563;52.242;7.956;2024-02-15T07:50:20;99954.22;;;12.05;100.00
5574;BME280;2563;52.242;7.956;2024-02-15T07:52:47;99902.88;;;11.99;100.00
5574;BME280;2563;52.242;7.956;2024-02-15T07:55:13;99864.91;;;12.03;100.00
5574;BME280;2563;52.242;7.956;2024-02-15T07:57:38;99802.16;;;12.02;100.00
5574;BME280;2563;52.242;7.956;2024-02-15T08:00:05;99741.09;;;12.03;100.00
5574;BME280;2563;52.242;7.956;2024-02-15T08:02:39;99655.28;;;11.99;100.00
5574;BME280;2563;52.242;7.956;2024-02-15T08:05:09;99598.63;;;11.98;100.00
5574;BME280;2563;52.242;7.956;2024-02-15T08:07:41;99587.47;;;11.97;100.00
5574;BME280;2563;52.242;7.956;2024-02-15T08:10:07;99568.50;;;11.98;100.00
5574;BME280;2563;52.242;7.956;2024-02-15T08:12:46;99566.84;;;11.97;100.00
5574;BME280;2563;52.242;7.956;2024-02-15T08:15:14;99564.19;;;11.99;100.00
5574;BME280;2563;52.242;7.956;2024-02-15T08:17:43;99548.72;;;11.99;100.00
5574;BME280;2563;52.242;7.956;2024-02-15T08:20:11;99530.59;;;12.00;100.00
5574;BME280;2563;52.242;7.956;2024-02-15T08:22:38;99554.56;;;12.02;100.00
5574;BME280;2563;52.242;7.956;2024-02-15T08:25:09;99558.88;;;12.02;100.00
5574;BME280;2563;52.242;7.956;2024-02-15T08:27:47;99574.34;;;12.02;100.00
5574;BME280;2563;52.242;7.956;2024-02-15T08:30:15;99583.78;;;12.03;100.00
5574;BME280;2563;52.242;7.956;2024-02-15T08:32:42;99589.91;;;12.00;100.00
5574;BME280;2563;52.242;7.956;2024-02-15T08:35:12;99600.91;;;12.04;100.00
5574;BME280;2563;52.242;7.956;2024-02-15T08:37:39;99610.34;;;12.05;100.00
5574;BME280;2563;52.242;7.956;2024-02-15T08:40:06;99603.50;;;12.04;100.00
5574;BME280;2563;52.242;7.956;2024-02-15T08:42:44;99604.25;;;12.06;100.00
5574;BME280;2563;52.242;7.956;2024-02-15T08:45:10;99604.97;;;12.09;100.00
5574;BME280;2563;52.242;7.956;2024-02-15T08:47:40;99609.78;;;12.17;100.00
5574;BME280;2563;52.242;7.956;2024-02-15T08:50:07;99603.47;;;12.23;100.00
5574;BME280;2563;52.242;7.956;2024-02-15T08:52:35;99602.81;;;12.19;100.00
5574;BME280;2563;52.242;7.956;2024-02-15T08:55:05;99609.56;;;12.22;100.00
5574;BME280;2563;52.242;7.956;2024-02-15T08:57:32;99600.00;;;12.24;100.00
5574;BME280;2563;52.242;7.956;2024-02-15T08:59:57;99615.91;;;12.33;100.00
5574;BME280;2563;52.242;7.956;2024-02-15T09:02:23;99619.25;;;12.36;100.00
5574;BME280;2563;52.242;7.956;2024-02-15T09:04:48;99617.78;;;12.30;100.00
5574;BME280;2563;52.242;7.956;2024-02-15T09:07:14;99636.81;;;12.27;100.00
5574;BME280;2563;52.242;7.956;2024-02-15T09:09:39;99649.91;;;12.23;100.00
5574;BME280;2563;52.242;7.956;2024-02-15T09:12:05;99653.47;;;12.20;100.00
5574;BME280;2563;52.242;7.956;2024-02-15T09:14:32;99661.41;;;12.16;100.00
5574;BME280;2563;52.242;7.956;2024-02-15T09:16:58;99671.53;;;12.20;100.00
5574;BME280;2563;52.242;7.956;2024-02-15T09:19:24;99677.69;;;12.18;100.00
5574;BME280;2563;52.242;7.956;2024-02-15T09:21:49;99689.81;;;12.16;100.00
5574;BME280;2563;52.242;7.956;2024-02-15T09:24:14;99703.53;;;12.16;100.00
5574;BME280;2563;52.242;7.956;2024-02-15T09:26:41;99713.31;;;12.09;100.00
5574;BME280;2563;52.242;7.956;2024-02-15T09:29:07;99717.53;;;12.10;100.00
5574;BME280;2563;52.242;7.956;2024-02-15T09:31:33;99731.16;;;12.14;100.00
5574;BME280;2563;52.242;7.956;2024-02-15T09:34:00;99732.88;;;12.13;100.00
5574;BME280;2563;52.242;7.956;2024-02-15T09:36:25;99749.34;;;12.11;100.00
5574;BME280;2563;52.242;7.956;2024-02-15T09:38:50;99737.06;;;12.16;100.00
5574;BME280;2563;52.242;7.956;2024-02-15T09:41:16;99743.19;;;12.13;100.00
5574;BME280;2563;52.242;7.956;2024-02-15T09:43:42;99752.50;;;12.18;100.00
5574;BME280;2563;52.242;7.956;2024-02-15T09:46:08;99749.06;;;12.17;100.00
5574;BME280;2563;52.242;7.956;2024-02-15T09:48:34;99751.81;;;12.14;100.00
5574;BME280;2563;52.242;7.956;2024-02-15T09:50:59;99757.84;;;12.13;100.00
5574;BME280;2563;52.242;7.956;2024-02-15T09:53:26;99750.44;;;12.05;100.00
5574;BME280;2563;52.242;7.956;2024-02-15T09:55:54;99749.03;;;11.98;100.00
5574;BME280;2563;52.242;7.956;2024-02-15T09:58:20;99745.69;;;11.96;100.00
5574;BME280;2563;52.242;7.956;2024-02-15T10:00:48;99752.78;;;11.91;100.00
5574;BME280;2563;52.242;7.956;2024-02-15T10:03:18;99764.06;;;11.88;100.00
5574;BME280;2563;52.242;7.956;2024-02-15T10:05:48;99770.16;;;11.86;100.00
5574;BME280;2563;52.242;7.956;2024-02-15T10:08:14;99780.53;;;11.84;100.00
5574;BME280;2563;52.242;7.956;2024-02-15T10:10:41;99783.19;;;11.83;100.00
5574;BME280;2563;52.242;7.956;2024-02-15T10:13:12;99775.44;;;11.83;100.00
5574;BME280;2563;52.242;7.956;2024-02-15T10:15:39;99789.09;;;11.85;100.00
5574;BME280;2563;52.242;7.956;2024-02-15T10:18:09;99783.94;;;11.85;100.00
5574;BME280;2563;52.242;7.956;2024-02-15T10:20:40;99793.25;;;11.89;100.00
5574;BME280;2563;52.242;7.956;2024-02-15T10:23:14;99785.53;;;11.89;100.00
5574;BME280;2563;52.242;7.956;2024-02-15T10:25:42;99776.97;;;11.88;100.00
5574;BME280;2563;52.242;7.956;2024-02-15T10:28:10;99766.50;;;11.91;100.00
5574;BME280;2563;52.242;7.956;2024-02-15T10:30:40;99767.34;;;11.92;100.00
5574;BME280;2563;52.242;7.956;2024-02-15T10:33:09;99762.13;;;11.94;100.00
5574;BME280;2563;52.242;7.956;2024-02-15T10:35:34;99761.94;;;11.98;100.00
5574;BME280;2563;52.242;7.956;2024-02-15T10:38:09;99742.91;;;12.01;100.00
5574;BME280;2563;52.242;7.956;2024-02-15T10:40:35;99733.31;;;12.04;100.00
5574;BME280;2563;52.242;7.956;2024-02-15T10:43:05;99733.16;;;12.07;100.00
5574;BME280;2563;52.242;7.956;2024-02-15T10:45:32;99726.31;;;12.06;100.00
5574;BME280;2563;52.242;7.956;2024-02-15T10:47:57;99727.03;;;12.10;100.00
5574;BME280;2563;52.242;7.956;2024-02-15T10:50:24;99715.88;;;12.09;100.00
5574;BME280;2563;52.242;7.956;2024-02-15T10:52:56;99716.00;;;12.06;100.00
5574;BME280;2563;52.242;7.956;2024-02-15T10:58:32;99710.97;;;12.03;100.00
5574;BME280;2563;52.242;7.956;2024-02-15T11:01:00;99696.53;;;11.99;100.00
5574;BME280;2563;52.242;7.956;2024-02-15T11:03:35;99685.34;;;12.00;100.00
5574;BME280;2563;52.242;7.956;2024-02-15T11:06:02;99712.00;;;11.99;100.00
5574;BME280;2563;52.242;7.956;2024-02-15T11:08:31;99729.19;;;12.00;100.00
5574;BME280;2563;52.242;7.956;2024-02-15T11:10:57;99746.41;;;12.00;100.00
5574;BME280;2563;52.242;7.956;2024-02-15T11:13:24;99761.94;;;11.98;100.00
5574;BME280;2563;52.242;7.956;2024-02-15T11:15:49;99756.72;;;12.00;100.00
5574;BME280;2563;52.242;7.956;2024-02-15T11:18:41;99770.84;;;12.11;100.00
5574;BME280;2563;52.242;7.956;2024-02-15T11:21:09;99772.34;;;12.16;100.00
5574;BME280;2563;52.242;7.956;2024-02-15T11:23:35;99780.47;;;12.27;100.00
5574;BME280;2563;52.242;7.956;2024-02-15T11:26:00;99782.47;;;12.41;100.00
5574;BME280;2563;52.242;7.956;2024-02-15T11:28:35;99774.22;;;12.51;100.00
5574;BME280;2563;52.242;7.956;2024-02-15T11:31:02;99761.09;;;12.56;100.00
5574;BME280;2563;52.242;7.956;2024-02-15T11:33:32;99754.56;;;12.68;100.00
5574;BME280;2563;52.242;7.956;2024-02-15T11:38:30;99726.94;;;12.70;100.00
5574;BME280;2563;52.242;7.956;2024-02-15T11:43:51;99692.94;;;12.60;100.00
5574;BME280;2563;52.242;7.956;2024-02-15T11:46:24;99688.47;;;12.64;100.00
5574;BME280;2563;52.242;7.956;2024-02-15T11:48:52;99674.25;;;12.74;100.00
5574;BME280;2563;52.242;7.956;2024-02-15T11:51:28;99673.47;;;12.72;100.00
5574;BME280;2563;52.242;7.956;2024-02-15T11:54:03;99663.16;;;12.72;100.00
5574;BME280;2563;52.242;7.956;2024-02-15T11:56:48;99663.38;;;12.85;100.00
5574;BME280;2563;52.242;7.956;2024-02-15T11:59:16;99664.09;;;12.88;100.00
5574;BME280;2563;52.242;7.956;2024-02-15T12:01:57;99654.38;;;12.93;100.00
5574;BME280;2563;52.242;7.956;2024-02-15T12:04:42;99656.81;;;12.96;100.00
5574;BME280;2563;52.242;7.956;2024-02-15T12:07:26;99647.69;;;13.07;100.00
5574;BME280;2563;52.242;7.956;2024-02-15T12:10:17;99655.22;;;13.11;100.00
5574;BME280;2563;52.242;7.956;2024-02-15T12:13:02;99669.59;;;13.17;100.00
5574;BME280;2563;52.242;7.956;2024-02-15T12:15:59;99663.69;;;13.32;100.00
5574;BME280;2563;52.242;7.956;2024-02-15T12:18:44;99686.56;;;13.40;100.00
5574;BME280;2563;52.242;7.956;2024-02-15T12:21:15;99713.41;;;13.37;100.00
5574;BME280;2563;52.242;7.956;2024-02-15T12:23:42;99731.09;;;13.45;100.00
5574;BME280;2563;52.242;7.956;2024-02-15T12:26:08;99771.63;;;13.45;100.00
5574;BME280;2563;52.242;7.956;2024-02-15T12:28:34;99804.88;;;13.52;100.00
5574;BME280;2563;52.242;7.956;2024-02-15T12:31:01;99851.97;;;13.59;100.00
5574;BME280;2563;52.242;7.956;2024-02-15T12:33:26;99906.19;;;13.60;100.00
5574;BME280;2563;52.242;7.956;2024-02-15T12:36:03;99967.53;;;13.57;100.00
5574;BME280;2563;52.242;7.956;2024-02-15T12:38:29;100040.38;;;13.67;100.00
5574;BME280;2563;52.242;7.956;2024-02-15T12:40:54;100108.97;;;13.75;100.00
5574;BME280;2563;52.242;7.956;2024-02-15T12:43:20;100180.94;;;13.66;100.00
5574;BME280;2563;52.242;7.956;2024-02-15T12:45:46;100258.88;;;13.58;100.00
5574;BME280;2563;52.242;7.956;2024-02-15T12:48:11;100316.81;;;13.74;100.00
5574;BME280;2563;52.242;7.956;2024-02-15T12:50:36;100395.97;;;13.78;100.00
5574;BME280;2563;52.242;7.956;2024-02-15T12:53:02;100477.06;;;13.77;100.00
5574;BME280;2563;52.242;7.956;2024-02-15T12:55:29;100540.00;;;13.78;100.00
5574;BME280;2563;52.242;7.956;2024-02-15T12:57:59;100594.31;;;13.78;100.00
5574;BME280;2563;52.242;7.956;2024-02-15T13:00:28;100642.84;;;13.71;100.00
5574;BME280;2563;52.242;7.956;2024-02-15T13:02:55;100672.34;;;13.67;100.00
5574;BME280;2563;52.242;7.956;2024-02-15T13:05:22;100679.13;;;13.93;100.00
5574;BME280;2563;52.242;7.956;2024-02-15T13:07:52;100684.81;;;14.03;100.00
5574;BME280;2563;52.242;7.956;2024-02-15T13:10:18;100688.88;;;14.10;100.00
5574;BME280;2563;52.242;7.956;2024-02-15T13:12:46;100701.16;;;14.05;100.00
5574;BME280;2563;52.242;7.956;2024-02-15T13:15:15;100712.75;;;14.18;100.00
5574;BME280;2563;52.242;7.956;2024-02-15T13:17:48;100744.16;;;14.33;100.00